Time;durP1;ratioP1;P1;durP2;ratioP2;P2;SDS_P1;SDS_P2;PMS_P1;PMS_P2;Temp;Humidity;BMP_temperature;BMP_pressure;BME280_temperature;BME280_humidity;BME280_pressure;Samples;Min_cycle;Max_cycle;Signal;HPM_P1;HPM_P2
2023/08/24 00:01:37;;;;;;;6.35;3.38;;;16.30;99.90;;;;;;5041724;28;20396;-80
2023/08/24 00:04:03;;;;;;;5.00;3.15;;;16.30;99.90;;;;;;5038006;28;20704;-80
2023/08/24 00:06:29;;;;;;;9.77;4.00;;;16.20;99.90;;;;;;5033833;28;20614;-80
2023/08/24 00:08:54;;;;;;;6.55;3.80;;;16.20;99.90;;;;;;5023855;28;20124;-80
2023/08/24 00:11:20;;;;;;;6.25;4.20;;;16.20;99.90;;;;;;5060482;28;20480;-81
2023/08/24 00:13:49;;;;;;;5.75;3.85;;;16.20;99.90;;;;;;5042006;28;20045;-80
2023/08/24 00:16:16;;;;;;;7.18;3.63;;;16.10;99.90;;;;;;5044509;28;20036;-80
2023/08/24 00:18:42;;;;;;;5.63;3.33;;;16.10;99.90;;;;;;5058418;28;20032;-80
2023/08/24 00:21:08;;;;;;;8.20;4.10;;;16.10;99.90;;;;;;5050447;28;20405;-80
2023/08/24 00:23:34;;;;;;;6.82;4.20;;;16.10;99.90;;;;;;5055668;28;20045;-80
2023/08/24 00:25:59;;;;;;;5.75;3.80;;;16.00;99.90;;;;;;5039230;28;20037;-80
2023/08/24 00:28:28;;;;;;;6.05;4.03;;;16.00;99.90;;;;;;5043152;28;20044;-79
2023/08/24 00:30:54;;;;;;;6.22;4.22;;;15.90;99.90;;;;;;5027022;28;20113;-80
2023/08/24 00:33:20;;;;;;;8.32;4.18;;;15.90;99.90;;;;;;5025381;28;20123;-80
2023/08/24 00:35:45;;;;;;;8.35;4.60;;;15.80;99.90;;;;;;5060855;28;20120;-80
2023/08/24 00:38:11;;;;;;;7.80;4.30;;;15.80;99.90;;;;;;5016183;28;20032;-80
2023/08/24 00:40:38;;;;;;;6.07;4.00;;;15.80;99.90;;;;;;5049511;28;20125;-80
2023/08/24 00:43:04;;;;;;;4.50;3.95;;;15.80;99.90;;;;;;5028331;28;20041;-80
2023/08/24 00:45:32;;;;;;;6.88;3.97;;;15.80;99.90;;;;;;5048529;28;20507;-80
2023/08/24 00:47:59;;;;;;;7.38;4.28;;;15.70;99.90;;;;;;5044858;28;20128;-80
2023/08/24 00:50:25;;;;;;;7.53;4.07;;;15.80;99.90;;;;;;5043129;28;20136;-80
2023/08/24 00:52:50;;;;;;;4.88;3.88;;;15.80;99.90;;;;;;5064392;28;20051;-80
2023/08/24 00:55:17;;;;;;;7.95;4.00;;;15.80;99.90;;;;;;5028232;28;20041;-80
2023/08/24 00:57:43;;;;;;;5.20;3.97;;;15.90;99.90;;;;;;5027600;28;20499;-80
2023/08/24 01:00:10;;;;;;;6.50;3.75;;;15.90;99.90;;;;;;5058058;28;20090;-81
2023/08/24 01:02:37;;;;;;;4.65;3.67;;;15.80;99.90;;;;;;5027238;28;20044;-80
2023/08/24 01:05:04;;;;;;;10.10;3.80;;;15.80;99.90;;;;;;5061568;28;20502;-80
2023/08/24 01:07:31;;;;;;;6.30;3.97;;;15.70;99.90;;;;;;5028663;28;20522;-80
2023/08/24 01:09:57;;;;;;;7.07;3.83;;;15.70;99.90;;;;;;5027224;28;20106;-80
2023/08/24 01:12:52;;;;;;;5.63;3.60;;;15.60;99.90;;;;;;5043101;28;20438;-80
2023/08/24 01:15:43;;;;;;;5.10;3.47;;;15.60;99.90;;;;;;5049918;28;20408;-80
2023/08/24 01:18:16;;;;;;;6.65;3.60;;;15.60;99.90;;;;;;5054191;28;20819;-80
2023/08/24 01:20:43;;;;;;;4.85;3.70;;;15.60;99.90;;;;;;5043523;28;20589;-80
2023/08/24 01:23:28;;;;;;;6.10;4.10;;;15.60;99.90;;;;;;5042624;28;20145;-80
2023/08/24 01:26:19;;;;;;;6.07;4.25;;;15.60;99.90;;;;;;5040655;28;20397;-80
2023/08/24 01:28:47;;;;;;;7.35;4.22;;;15.50;99.90;;;;;;5063090;28;20162;-79
2023/08/24 01:31:15;;;;;;;9.05;4.28;;;15.50;99.90;;;;;;5048709;28;20045;-80
2023/08/24 01:33:41;;;;;;;6.90;4.18;;;15.50;99.90;;;;;;5041692;28;20105;-80
2023/08/24 01:36:09;;;;;;;5.78;4.30;;;15.60;99.90;;;;;;5037829;28;20444;-80
2023/08/24 01:38:35;;;;;;;8.10;4.78;;;15.60;99.90;;;;;;5030013;28;20674;-80
2023/08/24 01:41:20;;;;;;;6.03;3.95;;;15.60;99.90;;;;;;5044946;28;20031;-81
2023/08/24 01:43:52;;;;;;;7.60;4.63;;;15.60;99.90;;;;;;5037686;28;20121;-80
2023/08/24 01:46:21;;;;;;;7.70;4.82;;;15.60;99.90;;;;;;5048158;28;20455;-80
2023/08/24 01:48:48;;;;;;;9.07;5.07;;;15.60;99.90;;;;;;5048053;28;20113;-80
2023/08/24 01:51:15;;;;;;;9.25;7.05;;;15.70;99.90;;;;;;5028784;28;20105;-80
2023/08/24 01:53:42;;;;;;;10.32;6.13;;;15.80;99.90;;;;;;5056265;28;20376;-80
2023/08/24 01:56:11;;;;;;;9.73;6.25;;;15.80;99.90;;;;;;5037651;28;20124;-80
2023/08/24 01:58:37;;;;;;;7.72;6.00;;;15.70;99.90;;;;;;5041363;28;20121;-80
2023/08/24 02:01:05;;;;;;;10.60;7.35;;;15.70;99.90;;;;;;5045566;28;20032;-80
2023/08/24 02:03:31;;;;;;;16.08;9.77;;;15.70;99.90;;;;;;5027431;28;20032;-79
2023/08/24 02:05:57;;;;;;;14.80;10.40;;;15.70;99.90;;;;;;5024612;28;20613;-80
2023/08/24 02:08:22;;;;;;;16.58;9.98;;;15.80;99.90;;;;;;5045183;28;20036;-80
2023/08/24 02:10:48;;;;;;;15.10;10.27;;;15.80;99.90;;;;;;5045461;28;20351;-80
2023/08/24 02:13:14;;;;;;;15.85;9.82;;;15.80;99.90;;;;;;5056067;28;20033;-80
2023/08/24 02:15:40;;;;;;;13.88;9.35;;;15.90;99.90;;;;;;5043665;28;20049;-80
2023/08/24 02:18:06;;;;;;;11.77;8.50;;;16.00;99.90;;;;;;5026869;28;20778;-80
2023/08/24 02:20:36;;;;;;;12.57;8.60;;;16.00;99.90;;;;;;5042160;28;20036;-81
2023/08/24 02:23:03;;;;;;;16.35;9.00;;;16.00;99.90;;;;;;5029004;28;20530;-81
2023/08/24 02:25:28;;;;;;;13.15;9.75;;;16.10;99.90;;;;;;5049482;28;20659;-81
2023/08/24 02:27:54;;;;;;;13.57;9.68;;;16.10;99.90;;;;;;5042404;28;20130;-80
2023/08/24 02:30:20;;;;;;;13.15;8.48;;;16.10;99.90;;;;;;5046309;28;20065;-80
2023/08/24 02:32:46;;;;;;;14.55;8.75;;;16.20;99.90;;;;;;5039926;28;20033;-81
2023/08/24 02:35:11;;;;;;;12.93;9.32;;;16.20;99.90;;;;;;5042823;28;20484;-80
2023/08/24 02:37:37;;;;;;;12.38;9.38;;;16.10;99.90;;;;;;5055086;28;20044;-80
2023/08/24 02:40:03;;;;;;;14.00;8.80;;;16.10;99.90;;;;;;5039859;28;20039;-80
2023/08/24 02:42:33;;;;;;;13.80;9.90;;;16.10;99.90;;;;;;5026312;28;20397;-81
2023/08/24 02:44:59;;;;;;;14.00;8.48;;;16.10;99.90;;;;;;5056287;28;20403;-81
2023/08/24 02:47:25;;;;;;;14.77;9.20;;;16.10;99.90;;;;;;5033103;28;20133;-81
2023/08/24 02:49:51;;;;;;;13.95;8.23;;;16.00;99.90;;;;;;5019352;28;20041;-81
2023/08/24 02:52:17;;;;;;;13.10;8.68;;;16.00;99.90;;;;;;5054165;28;20045;-80
2023/08/24 02:54:43;;;;;;;11.65;8.15;;;16.00;99.90;;;;;;5037369;28;20103;-81
2023/08/24 02:57:09;;;;;;;12.63;7.90;;;16.00;99.90;;;;;;5061878;28;20120;-81
2023/08/24 02:59:34;;;;;;;9.63;8.18;;;15.90;99.90;;;;;;5024323;28;20032;-80
2023/08/24 03:02:00;;;;;;;10.15;7.20;;;16.00;99.90;;;;;;5053289;28;20102;-80
2023/08/24 03:04:26;;;;;;;12.90;8.05;;;15.90;99.90;;;;;;5031794;28;20051;-80
2023/08/24 03:06:52;;;;;;;12.15;8.52;;;16.00;99.90;;;;;;5044628;28;20048;-80
2023/08/24 03:09:18;;;;;;;11.32;8.27;;;16.00;99.90;;;;;;5052264;28;20458;-80
2023/08/24 03:11:44;;;;;;;11.40;8.20;;;15.90;99.90;;;;;;5036636;28;20044;-81
2023/08/24 03:14:09;;;;;;;10.25;7.10;;;16.00;99.90;;;;;;5038918;28;20063;-81
2023/08/24 03:16:39;;;;;;;12.05;7.43;;;15.90;99.90;;;;;;5023143;28;20052;-81
2023/08/24 03:19:05;;;;;;;11.18;7.35;;;16.00;99.90;;;;;;5053874;28;20063;-81
2023/08/24 03:21:31;;;;;;;9.52;7.28;;;16.00;99.90;;;;;;5041513;28;20068;-81
2023/08/24 03:23:57;;;;;;;9.93;8.00;;;16.00;99.90;;;;;;5038874;28;20039;-81
2023/08/24 03:26:23;;;;;;;14.30;7.80;;;16.00;99.90;;;;;;5054729;28;20036;-81
2023/08/24 03:28:49;;;;;;;9.60;7.18;;;16.00;99.90;;;;;;5009496;28;20033;-80
2023/08/24 03:31:16;;;;;;;8.93;6.55;;;16.00;99.90;;;;;;5021504;28;20037;-80
2023/08/24 03:33:42;;;;;;;9.82;7.47;;;16.00;99.90;;;;;;5041696;28;20123;-81
2023/08/24 03:36:07;;;;;;;10.20;7.60;;;16.00;99.90;;;;;;5042349;28;20136;-80
2023/08/24 03:38:33;;;;;;;12.18;7.88;;;16.00;99.90;;;;;;5045755;28;20052;-80
2023/08/24 03:41:03;;;;;;;12.50;7.47;;;15.90;99.90;;;;;;5039140;28;20048;-80
2023/08/24 03:43:36;;;;;;;11.90;7.88;;;15.90;99.90;;;;;;5021609;28;20028;-81
2023/08/24 03:46:04;;;;;;;12.25;8.52;;;15.90;99.90;;;;;;5043250;28;20055;-81
2023/08/24 03:48:29;;;;;;;10.60;7.95;;;15.80;99.90;;;;;;5039991;28;20043;-81
2023/08/24 03:50:56;;;;;;;11.60;7.10;;;15.80;99.90;;;;;;5048110;28;20037;-81
2023/08/24 03:53:22;;;;;;;10.07;8.63;;;15.80;99.90;;;;;;5019535;28;20028;-81
2023/08/24 03:55:49;;;;;;;10.82;8.65;;;15.80;99.90;;;;;;5046045;28;21364;-80
2023/08/24 03:58:15;;;;;;;11.40;9.32;;;15.70;99.90;;;;;;5040592;28;20036;-80
2023/08/24 04:00:41;;;;;;;9.63;7.47;;;15.70;99.90;;;;;;5037694;28;20126;-80
2023/08/24 04:03:08;;;;;;;12.70;9.13;;;15.70;99.90;;;;;;5023436;28;20028;-80
2023/08/24 04:05:34;;;;;;;11.95;8.30;;;15.70;99.90;;;;;;5028786;28;20131;-80
2023/08/24 04:08:04;;;;;;;10.68;8.05;;;15.70;99.90;;;;;;5020369;28;20129;-80
2023/08/24 04:10:30;;;;;;;10.60;8.13;;;15.70;99.90;;;;;;5035898;28;20058;-80
2023/08/24 04:12:56;;;;;;;9.30;8.40;;;15.60;99.90;;;;;;5041377;28;20433;-81
2023/08/24 04:15:22;;;;;;;10.85;7.60;;;15.60;99.90;;;;;;5023365;28;20373;-80
2023/08/24 04:17:49;;;;;;;12.27;8.20;;;15.60;99.90;;;;;;5029734;28;20041;-80
2023/08/24 04:20:15;;;;;;;12.45;8.45;;;15.50;99.90;;;;;;5044576;28;20035;-80
2023/08/24 04:22:42;;;;;;;12.70;9.15;;;15.40;99.90;;;;;;5037422;28;20047;-80
2023/08/24 04:25:08;;;;;;;12.45;8.18;;;15.40;99.90;;;;;;5022369;28;20097;-80
2023/08/24 04:27:34;;;;;;;13.27;8.50;;;15.40;99.90;;;;;;5056223;28;20049;-80
2023/08/24 04:30:00;;;;;;;11.75;8.38;;;15.30;99.90;;;;;;5027132;28;20041;-80
2023/08/24 04:32:27;;;;;;;10.20;8.05;;;15.30;99.90;;;;;;5040066;28;20123;-80
2023/08/24 04:34:53;;;;;;;10.98;8.18;;;15.40;99.90;;;;;;5043187;28;20141;-80
2023/08/24 04:37:19;;;;;;;9.48;8.30;;;15.40;99.90;;;;;;5037194;28;20120;-81
2023/08/24 04:39:44;;;;;;;11.02;8.70;;;15.40;99.90;;;;;;5041900;28;20064;-80
2023/08/24 04:42:10;;;;;;;10.98;8.75;;;15.40;99.90;;;;;;5024887;28;20076;-80
2023/08/24 04:44:36;;;;;;;14.20;10.25;;;15.40;99.90;;;;;;5034754;28;20540;-80
2023/08/24 04:47:01;;;;;;;14.35;10.30;;;15.40;99.90;;;;;;5022077;28;20048;-80
2023/08/24 04:49:28;;;;;;;11.50;9.90;;;15.40;99.90;;;;;;5038909;28;20045;-80
2023/08/24 04:51:54;;;;;;;11.45;9.52;;;15.40;99.90;;;;;;5022012;28;20119;-81
2023/08/24 04:54:19;;;;;;;15.48;10.75;;;15.40;99.90;;;;;;5010346;28;20528;-81
2023/08/24 04:56:45;;;;;;;16.00;10.07;;;15.40;99.90;;;;;;5042078;28;20400;-80
2023/08/24 04:59:11;;;;;;;17.75;10.00;;;15.40;99.90;;;;;;5033877;28;20036;-80
2023/08/24 05:01:37;;;;;;;15.50;10.90;;;15.50;99.90;;;;;;5016742;28;20033;-80
2023/08/24 05:04:03;;;;;;;15.88;10.43;;;15.50;99.90;;;;;;5037767;28;20040;-80
2023/08/24 05:06:29;;;;;;;13.90;10.93;;;15.50;99.90;;;;;;5022311;28;20040;-80
2023/08/24 05:08:55;;;;;;;14.95;11.18;;;15.50;99.90;;;;;;5018049;28;21353;-81
2023/08/24 05:11:24;;;;;;;16.58;11.43;;;15.40;99.90;;;;;;5022677;28;20460;-80
2023/08/24 05:13:50;;;;;;;16.25;11.10;;;15.50;99.90;;;;;;5041043;28;20033;-80
2023/08/24 05:16:16;;;;;;;15.02;11.48;;;15.40;99.90;;;;;;5057964;28;20098;-80
2023/08/24 05:18:42;;;;;;;14.73;10.65;;;15.40;99.90;;;;;;5023423;28;20033;-81
2023/08/24 05:21:07;;;;;;;18.20;12.50;;;15.50;99.90;;;;;;5026607;28;20135;-81
2023/08/24 05:23:34;;;;;;;16.52;10.98;;;15.50;99.90;;;;;;5060818;28;20045;-81
2023/08/24 05:26:02;;;;;;;17.02;11.73;;;15.60;99.90;;;;;;5038735;28;20057;-80
2023/08/24 05:28:29;;;;;;;16.17;11.18;;;15.60;99.90;;;;;;5057560;28;20041;-80
2023/08/24 05:30:55;;;;;;;16.02;11.48;;;15.70;99.90;;;;;;5045636;28;20125;-80
2023/08/24 05:33:22;;;;;;;16.50;11.30;;;15.70;99.90;;;;;;5062896;28;20040;-80
2023/08/24 05:35:49;;;;;;;15.70;11.55;;;15.80;99.90;;;;;;5026306;28;20044;-80
2023/08/24 05:38:15;;;;;;;14.18;11.43;;;15.80;99.90;;;;;;5034092;28;20040;-81
2023/08/24 05:40:42;;;;;;;13.60;10.82;;;15.90;99.90;;;;;;5042998;28;20040;-82
2023/08/24 05:43:09;;;;;;;16.75;11.68;;;16.00;99.90;;;;;;5036779;28;20040;-81
2023/08/24 05:45:35;;;;;;;15.38;10.82;;;16.10;99.90;;;;;;5029900;28;20550;-81
2023/08/24 05:48:01;;;;;;;18.95;12.07;;;16.10;99.90;;;;;;5025562;28;20488;-81
2023/08/24 05:50:27;;;;;;;14.13;11.20;;;16.10;99.90;;;;;;5038340;28;20040;-81
2023/08/24 05:52:52;;;;;;;14.10;11.63;;;16.20;99.90;;;;;;5027054;28;20106;-81
2023/08/24 05:55:18;;;;;;;16.27;11.48;;;16.20;99.90;;;;;;5038478;28;20041;-81
2023/08/24 05:57:44;;;;;;;14.13;10.82;;;16.30;99.90;;;;;;5042975;28;20128;-81
2023/08/24 06:00:10;;;;;;;12.75;10.70;;;16.30;99.90;;;;;;5044086;28;20511;-81
2023/08/24 06:02:37;;;;;;;15.32;11.32;;;16.40;99.90;;;;;;5022053;28;20083;-81
2023/08/24 06:05:03;;;;;;;14.57;10.77;;;16.40;99.90;;;;;;5042482;28;20120;-81
2023/08/24 06:07:32;;;;;;;14.45;10.77;;;16.50;99.90;;;;;;5028133;28;20102;-81
2023/08/24 06:09:58;;;;;;;14.98;10.40;;;16.60;99.90;;;;;;5063648;28;20496;-81
2023/08/24 06:12:23;;;;;;;11.90;10.55;;;16.60;99.90;;;;;;5033022;28;20055;-81
2023/08/24 06:14:49;;;;;;;18.67;10.93;;;16.60;99.90;;;;;;5041184;28;20381;-81
2023/08/24 06:17:15;;;;;;;15.18;10.63;;;16.70;99.90;;;;;;5026232;28;20073;-81
2023/08/24 06:19:41;;;;;;;14.10;10.50;;;16.70;99.90;;;;;;5022228;28;20037;-81
2023/08/24 06:22:07;;;;;;;14.38;10.50;;;16.70;99.90;;;;;;5042251;28;20456;-80
2023/08/24 06:24:33;;;;;;;14.18;11.05;;;16.80;99.90;;;;;;5039595;28;20140;-82
2023/08/24 06:26:59;;;;;;;17.52;11.07;;;16.90;99.90;;;;;;5028341;28;20045;-81
2023/08/24 06:29:24;;;;;;;12.93;9.55;;;16.90;99.90;;;;;;5009013;28;20048;-81
2023/08/24 06:31:50;;;;;;;11.23;9.52;;;17.00;99.90;;;;;;5036390;28;20041;-82
2023/08/24 06:34:16;;;;;;;12.13;9.30;;;17.00;99.90;;;;;;5051511;28;20067;-81
2023/08/24 06:36:41;;;;;;;14.70;9.30;;;17.10;99.90;;;;;;5023519;28;20190;-81
2023/08/24 06:39:08;;;;;;;13.60;9.85;;;17.20;99.90;;;;;;5072490;28;20040;-80
2023/08/24 06:41:35;;;;;;;12.63;8.90;;;17.20;99.90;;;;;;5022319;28;20040;-81
2023/08/24 06:44:01;;;;;;;11.93;9.65;;;17.30;99.90;;;;;;5032335;28;20076;-81
2023/08/24 06:46:27;;;;;;;14.48;9.55;;;17.30;99.90;;;;;;5041529;28;20119;-81
2023/08/24 06:48:53;;;;;;;11.05;9.60;;;17.40;99.90;;;;;;5060175;28;20536;-81
2023/08/24 06:51:18;;;;;;;15.20;9.85;;;17.40;99.90;;;;;;5022282;28;20033;-80
2023/08/24 06:53:46;;;;;;;15.20;11.05;;;17.50;99.90;;;;;;5033967;28;20068;-81
2023/08/24 06:56:14;;;;;;;15.38;10.77;;;17.60;99.90;;;;;;5034738;28;20032;-82
2023/08/24 06:58:40;;;;;;;17.42;11.13;;;17.60;99.90;;;;;;5035116;28;20112;-80
2023/08/24 07:01:06;;;;;;;15.98;11.05;;;17.70;99.90;;;;;;5017407;28;20539;-80
2023/08/24 07:03:35;;;;;;;13.73;10.63;;;17.70;99.90;;;;;;5064598;28;20049;-80
2023/08/24 07:06:00;;;;;;;16.30;10.95;;;17.80;99.90;;;;;;5032759;28;20496;-80
2023/08/24 07:08:26;;;;;;;15.23;10.98;;;17.80;99.90;;;;;;5050004;28;20083;-80
2023/08/24 07:10:52;;;;;;;15.52;11.02;;;17.80;99.90;;;;;;5023789;28;20408;-80
2023/08/24 07:13:18;;;;;;;18.95;11.05;;;17.90;99.90;;;;;;5042376;28;20445;-80
2023/08/24 07:15:45;;;;;;;15.13;11.93;;;17.90;99.90;;;;;;5033924;28;20644;-80
2023/08/24 07:18:11;;;;;;;18.92;12.45;;;18.00;99.90;;;;;;5028953;28;20044;-80
2023/08/24 07:20:37;;;;;;;14.15;11.52;;;18.00;99.90;;;;;;5037194;28;20044;-80
2023/08/24 07:23:03;;;;;;;17.23;12.18;;;18.20;99.90;;;;;;5059604;28;20123;-80
2023/08/24 07:25:29;;;;;;;16.25;11.98;;;18.30;99.90;;;;;;5033837;28;20084;-80
2023/08/24 07:27:59;;;;;;;15.85;11.85;;;18.40;99.90;;;;;;5031918;28;20127;-81
2023/08/24 07:30:28;;;;;;;15.65;11.98;;;18.50;99.90;;;;;;5033723;28;20049;-81
2023/08/24 07:32:54;;;;;;;15.00;11.68;;;18.70;99.90;;;;;;5040006;28;20041;-80
2023/08/24 07:35:20;;;;;;;17.45;11.93;;;18.80;99.90;;;;;;5038131;28;20057;-80
2023/08/24 07:37:50;;;;;;;18.05;13.13;;;18.90;99.90;;;;;;5007784;28;20397;-82
2023/08/24 07:40:16;;;;;;;16.77;12.13;;;19.10;99.90;;;;;;5010154;28;20036;-81
2023/08/24 07:42:46;;;;;;;19.50;13.13;;;19.10;99.90;;;;;;5024334;28;20491;-81
2023/08/24 07:45:14;;;;;;;15.25;11.82;;;19.30;99.90;;;;;;5031720;28;20049;-81
2023/08/24 07:47:40;;;;;;;17.55;11.73;;;19.40;99.90;;;;;;5037291;28;20173;-81
2023/08/24 07:50:07;;;;;;;15.82;11.20;;;19.50;99.90;;;;;;5019449;28;20051;-81
2023/08/24 07:52:33;;;;;;;17.75;10.80;;;19.50;99.90;;;;;;5006261;28;20057;-81
2023/08/24 07:55:00;;;;;;;15.20;11.30;;;19.60;99.90;;;;;;5046963;28;20460;-81
2023/08/24 07:57:26;;;;;;;17.27;11.48;;;19.60;99.90;;;;;;5046748;28;20063;-82
2023/08/24 07:59:52;;;;;;;13.68;9.77;;;19.60;99.90;;;;;;5037723;28;20481;-82
2023/08/24 08:02:18;;;;;;;15.60;11.15;;;19.70;99.90;;;;;;5062343;28;20040;-81
2023/08/24 08:04:44;;;;;;;13.65;10.02;;;19.80;99.90;;;;;;5033529;28;20041;-81
2023/08/24 08:07:10;;;;;;;13.90;10.05;;;19.90;99.90;;;;;;5055510;28;20060;-83
2023/08/24 08:09:39;;;;;;;12.35;9.80;;;20.10;99.90;;;;;;5022412;28;20089;-82
2023/08/24 08:12:04;;;;;;;15.15;9.98;;;20.20;99.90;;;;;;5033421;28;20055;-82
2023/08/24 08:14:30;;;;;;;11.85;9.18;;;20.40;99.90;;;;;;5033835;28;20408;-82
2023/08/24 08:16:56;;;;;;;10.75;8.38;;;20.50;99.90;;;;;;5028954;28;20049;-82
2023/08/24 08:19:25;;;;;;;14.75;9.35;;;20.70;99.90;;;;;;5050589;28;20044;-82
2023/08/24 08:21:51;;;;;;;12.50;9.15;;;20.80;99.90;;;;;;5010089;28;20081;-82
2023/08/24 08:24:17;;;;;;;13.73;10.07;;;21.00;99.90;;;;;;5046947;28;20118;-82
2023/08/24 08:26:43;;;;;;;14.02;10.27;;;21.10;99.90;;;;;;5016953;28;20488;-83
2023/08/24 08:29:08;;;;;;;12.00;9.60;;;21.20;99.90;;;;;;5033212;28;20041;-82
2023/08/24 08:31:35;;;;;;;11.52;9.48;;;21.30;99.90;;;;;;5040783;28;20047;-81
2023/08/24 08:34:01;;;;;;;11.68;9.57;;;21.40;99.90;;;;;;5037908;28;20042;-82
2023/08/24 08:36:27;;;;;;;12.38;9.85;;;21.50;99.90;;;;;;5011237;28;20498;-82
2023/08/24 08:38:52;;;;;;;11.50;9.40;;;21.60;99.90;;;;;;5025492;28;20147;-82
2023/08/24 08:41:22;;;;;;;12.02;9.60;;;21.70;99.90;;;;;;5064915;28;20119;-82
2023/08/24 08:43:49;;;;;;;13.00;9.32;;;21.80;99.90;;;;;;5030386;28;20043;-82
2023/08/24 08:46:16;;;;;;;13.25;9.88;;;21.90;99.90;;;;;;5014116;28;20077;-82
2023/08/24 08:48:42;;;;;;;14.38;9.02;;;21.90;99.90;;;;;;5003618;28;20127;-83
2023/08/24 08:51:09;;;;;;;10.25;8.07;;;21.80;99.90;;;;;;5001139;28;20497;-82
2023/08/24 08:53:35;;;;;;;12.20;9.75;;;21.90;99.90;;;;;;5008995;28;20094;-82
2023/08/24 08:56:04;;;;;;;11.43;9.50;;;22.00;99.90;;;;;;5021331;28;20434;-84
2023/08/24 08:58:31;;;;;;;12.60;10.18;;;22.10;99.90;;;;;;5038788;28;20143;-82
2023/08/24 09:00:59;;;;;;;12.18;9.80;;;22.20;99.90;;;;;;5062276;28;20558;-82
2023/08/24 09:03:28;;;;;;;12.07;9.30;;;22.40;99.90;;;;;;5033749;28;20083;-81
2023/08/24 09:05:54;;;;;;;15.57;10.15;;;22.50;99.90;;;;;;5053460;28;20033;-82
2023/08/24 09:08:21;;;;;;;14.70;10.18;;;22.50;99.90;;;;;;5020401;28;20044;-82
2023/08/24 09:10:47;;;;;;;12.88;9.90;;;22.50;99.90;;;;;;5037434;28;20064;-83
2023/08/24 09:13:13;;;;;;;13.65;10.02;;;22.40;99.90;;;;;;5036765;28;20052;-82
2023/08/24 09:15:39;;;;;;;16.00;10.70;;;22.40;99.90;;;;;;5071034;28;20037;-83
2023/08/24 09:18:05;;;;;;;14.02;9.98;;;22.40;99.90;;;;;;5039828;28;20060;-81
2023/08/24 09:20:30;;;;;;;12.40;9.98;;;22.40;99.90;;;;;;5037012;28;20404;-81
2023/08/24 09:22:57;;;;;;;11.23;10.05;;;22.50;99.90;;;;;;5053049;28;20049;-82
2023/08/24 09:25:24;;;;;;;12.57;9.63;;;22.50;99.90;;;;;;5031695;28;20052;-82
2023/08/24 09:28:03;;;;;;;12.07;10.40;;;22.60;99.90;;;;;;5052427;28;20144;-82
2023/08/24 09:30:35;;;;;;;12.23;10.10;;;22.60;99.90;;;;;;5035835;28;20449;-82
2023/08/24 09:33:02;;;;;;;14.90;10.80;;;22.70;99.90;;;;;;5048227;28;20099;-82
2023/08/24 09:35:28;;;;;;;11.48;9.70;;;22.70;99.90;;;;;;5051648;28;20056;-81
2023/08/24 09:37:54;;;;;;;13.98;9.93;;;22.60;99.90;;;;;;5053903;28;20037;-82
2023/08/24 09:40:25;;;;;;;11.77;9.38;;;22.70;99.90;;;;;;5040858;28;20025;-81
2023/08/24 09:42:51;;;;;;;17.05;10.82;;;22.70;99.90;;;;;;5061497;28;20033;-82
2023/08/24 09:45:17;;;;;;;12.90;9.60;;;22.60;99.90;;;;;;5034686;28;20029;-82
2023/08/24 09:48:01;;;;;;;12.32;9.55;;;22.60;99.90;;;;;;5055311;28;20056;-82
2023/08/24 09:50:27;;;;;;;12.05;9.77;;;22.50;99.90;;;;;;5051879;28;20075;-82
2023/08/24 09:52:57;;;;;;;13.48;10.20;;;22.50;99.90;;;;;;5035547;28;20048;-82
2023/08/24 09:55:26;;;;;;;15.13;10.95;;;22.40;99.90;;;;;;5036328;28;20396;-82
2023/08/24 09:57:57;;;;;;;11.90;10.18;;;22.30;99.90;;;;;;5061714;28;20044;-82
2023/08/24 10:00:24;;;;;;;15.10;11.55;;;22.30;99.90;;;;;;5052172;28;20051;-82
2023/08/24 10:02:53;;;;;;;15.68;10.70;;;22.30;99.90;;;;;;5052905;28;20037;-82
2023/08/24 10:05:25;;;;;;;15.43;9.73;;;22.20;99.90;;;;;;5052479;28;20094;-82
2023/08/24 10:07:54;;;;;;;11.75;10.55;;;22.20;99.90;;;;;;5036978;28;20051;-82
2023/08/24 10:10:29;;;;;;;14.50;10.35;;;22.20;99.90;;;;;;5033665;28;20110;-82
2023/08/24 10:13:04;;;;;;;11.35;10.05;;;22.20;99.90;;;;;;5038009;28;20484;-81
2023/08/24 10:15:32;;;;;;;14.07;11.52;;;22.10;99.90;;;;;;5039190;28;20041;-82
2023/08/24 10:17:59;;;;;;;13.32;10.85;;;22.10;99.90;;;;;;5039277;28;20094;-82
2023/08/24 10:20:26;;;;;;;12.60;10.63;;;22.10;99.90;;;;;;5039157;28;20040;-82
2023/08/24 10:22:52;;;;;;;14.88;12.57;;;22.10;99.90;;;;;;5018342;28;20061;-82
2023/08/24 10:25:18;;;;;;;13.25;10.45;;;22.10;99.90;;;;;;5012460;28;20463;-82
2023/08/24 10:27:47;;;;;;;16.30;11.18;;;22.10;99.90;;;;;;5051186;28;20075;-82
2023/08/24 10:30:14;;;;;;;14.65;11.50;;;22.10;99.90;;;;;;5036172;28;20084;-82
2023/08/24 10:32:41;;;;;;;16.33;12.43;;;22.10;99.90;;;;;;5052526;28;20080;-82
2023/08/24 10:35:08;;;;;;;15.23;12.60;;;22.10;99.90;;;;;;5034238;28;20489;-82
2023/08/24 10:37:34;;;;;;;16.63;12.40;;;22.10;99.90;;;;;;5020747;28;20128;-83
2023/08/24 10:40:00;;;;;;;18.17;10.80;;;22.10;99.90;;;;;;5042991;28;20037;-82
2023/08/24 10:42:26;;;;;;;16.80;12.43;;;22.20;99.90;;;;;;5070558;28;20053;-82
2023/08/24 10:44:52;;;;;;;15.90;11.18;;;22.20;99.90;;;;;;5052411;28;20155;-82
2023/08/24 10:47:19;;;;;;;15.38;11.45;;;22.20;99.90;;;;;;5059519;28;20045;-82
2023/08/24 10:49:57;;;;;;;16.02;11.20;;;22.30;99.90;;;;;;5039362;28;20120;-82
2023/08/24 10:52:24;;;;;;;14.35;10.75;;;22.30;99.90;;;;;;5034497;28;20059;-83
2023/08/24 10:54:52;;;;;;;15.60;11.63;;;22.30;99.90;;;;;;5035849;28;20040;-82
2023/08/24 10:57:27;;;;;;;13.82;11.18;;;22.30;99.90;;;;;;5071221;28;20048;-82
2023/08/24 11:00:05;;;;;;;11.98;10.77;;;22.40;99.90;;;;;;5028055;28;20488;-82
2023/08/24 11:02:41;;;;;;;14.95;10.55;;;22.40;99.90;;;;;;5055971;28;20036;-82
2023/08/24 11:05:31;;;;;;;14.82;11.40;;;22.40;99.90;;;;;;5037854;28;20037;-82
2023/08/24 11:07:59;;;;;;;12.20;11.00;;;22.50;99.90;;;;;;5032049;28;20506;-82
2023/08/24 11:10:41;;;;;;;13.40;10.55;;;22.50;99.90;;;;;;5054592;28;20317;-82
2023/08/24 11:13:19;;;;;;;16.60;11.77;;;22.50;99.90;;;;;;5036908;28;20129;-83
2023/08/24 11:15:54;;;;;;;13.63;11.50;;;22.60;99.90;;;;;;5021287;28;20049;-82
2023/08/24 11:18:26;;;;;;;13.55;11.02;;;22.70;99.90;;;;;;5035842;28;20400;-82
2023/08/24 11:21:06;;;;;;;14.25;10.77;;;22.80;99.90;;;;;;5032752;28;20034;-83
2023/08/24 11:23:32;;;;;;;13.50;10.75;;;22.90;99.90;;;;;;5028000;28;20088;-82
2023/08/24 11:26:02;;;;;;;13.68;10.95;;;23.00;99.90;;;;;;5041423;28;20068;-82
2023/08/24 11:28:30;;;;;;;14.43;11.68;;;23.10;99.90;;;;;;5040183;28;20037;-82
2023/08/24 11:30:58;;;;;;;12.73;11.25;;;23.20;99.90;;;;;;5041147;28;20056;-82
2023/08/24 11:33:32;;;;;;;14.48;11.55;;;23.30;99.90;;;;;;5040934;28;20068;-82
2023/08/24 11:35:59;;;;;;;14.82;10.73;;;23.40;99.90;;;;;;5042334;28;20059;-82
2023/08/24 11:38:25;;;;;;;12.60;10.38;;;23.40;99.90;;;;;;5039065;28;20064;-82
2023/08/24 11:40:51;;;;;;;13.90;11.75;;;23.50;99.90;;;;;;5026048;28;20037;-82
2023/08/24 11:43:26;;;;;;;14.27;11.60;;;23.50;99.90;;;;;;5038867;28;20064;-84
2023/08/24 11:45:54;;;;;;;14.25;11.70;;;23.50;99.90;;;;;;5024661;28;20037;-82
2023/08/24 11:48:25;;;;;;;13.00;11.02;;;23.50;99.90;;;;;;5024800;28;20342;-82
2023/08/24 11:50:51;;;;;;;13.32;10.38;;;23.50;99.90;;;;;;5040417;28;20048;-82
2023/08/24 11:53:17;;;;;;;13.02;11.05;;;23.50;99.90;;;;;;5023615;28;20040;-83
2023/08/24 11:55:44;;;;;;;13.43;11.10;;;23.50;99.90;;;;;;5040495;28;20041;-84
2023/08/24 11:58:16;;;;;;;12.10;11.00;;;23.50;99.90;;;;;;5025758;28;20041;-83
2023/08/24 12:00:43;;;;;;;12.75;11.02;;;23.50;99.90;;;;;;5025370;28;20473;-83
2023/08/24 12:03:09;;;;;;;13.80;10.68;;;23.60;99.90;;;;;;5009349;28;21053;-83
2023/08/24 12:05:35;;;;;;;13.73;11.82;;;23.60;99.90;;;;;;5041998;28;20377;-82
2023/08/24 12:08:02;;;;;;;13.73;11.48;;;23.60;99.90;;;;;;5040244;28;20439;-83
2023/08/24 12:10:28;;;;;;;12.85;11.38;;;23.60;99.90;;;;;;5039386;28;20041;-83
2023/08/24 12:13:09;;;;;;;15.25;10.50;;;23.60;99.90;;;;;;5042023;28;20091;-83
2023/08/24 12:15:36;;;;;;;11.80;10.10;;;23.70;99.90;;;;;;5043335;28;20807;-83
2023/08/24 12:18:13;;;;;;;13.15;10.10;;;23.70;99.90;;;;;;5042603;28;20043;-82
2023/08/24 12:20:40;;;;;;;12.38;10.20;;;23.70;99.90;;;;;;5022163;28;20049;-83
2023/08/24 12:23:07;;;;;;;12.13;10.27;;;23.70;99.90;;;;;;5045563;28;20076;-83
2023/08/24 12:25:43;;;;;;;11.57;10.45;;;23.70;99.90;;;;;;5031395;28;20045;-82
2023/08/24 12:28:14;;;;;;;12.43;10.43;;;23.70;99.90;;;;;;5048249;28;20083;-83
2023/08/24 12:30:48;;;;;;;11.52;9.73;;;23.60;99.90;;;;;;5032452;28;20029;-83
2023/08/24 12:33:28;;;;;;;12.77;10.40;;;23.60;99.90;;;;;;5046449;28;20512;-83
2023/08/24 12:35:55;;;;;;;12.80;10.50;;;23.60;99.90;;;;;;5012842;28;20100;-83